createdAt,value
2023-04-29T00:01:32.182Z,99.90
2023-04-29T00:03:59.134Z,99.90
2023-04-29T00:06:26.253Z,99.90
2023-04-29T00:08:54.199Z,99.90
2023-04-29T00:11:20.932Z,99.90
2023-04-29T00:13:47.601Z,99.90
2023-04-29T00:16:14.966Z,99.90
2023-04-29T00:18:41.913Z,99.90
2023-04-29T00:21:08.689Z,99.90
2023-04-29T00:23:35.565Z,99.90
2023-04-29T00:26:02.290Z,99.90
2023-04-29T00:28:29.006Z,99.90
2023-04-29T00:30:56.199Z,99.90
2023-04-29T00:33:23.192Z,99.90
2023-04-29T00:35:50.235Z,99.90
2023-04-29T00:38:17.197Z,99.90
2023-04-29T00:40:44.897Z,99.90
2023-04-29T00:43:11.748Z,99.90
2023-04-29T00:45:38.537Z,99.90
2023-04-29T00:48:05.538Z,99.90
2023-04-29T00:50:32.419Z,99.90
2023-04-29T00:53:00.155Z,99.90
2023-04-29T00:55:27.372Z,99.90
2023-04-29T00:57:54.220Z,99.90
2023-04-29T01:00:21.271Z,99.90
2023-04-29T01:02:50.138Z,99.90
2023-04-29T01:05:17.948Z,99.90
2023-04-29T01:07:59.110Z,99.90
2023-04-29T01:10:29.686Z,99.90
2023-04-29T01:13:05.994Z,99.90
2023-04-29T01:15:49.372Z,99.90
2023-04-29T01:18:20.731Z,99.90
2023-04-29T01:20:48.329Z,99.90
2023-04-29T01:23:15.009Z,99.90
2023-04-29T01:25:42.014Z,99.90
2023-04-29T01:28:45.895Z,99.90
2023-04-29T01:31:38.830Z,99.90
2023-04-29T01:34:11.647Z,99.90
2023-04-29T01:37:01.098Z,99.90
2023-04-29T01:39:37.921Z,99.90
2023-04-29T01:42:14.916Z,99.90
2023-04-29T01:44:43.212Z,99.90
2023-04-29T01:47:13.977Z,99.90
2023-04-29T01:49:40.903Z,99.90
2023-04-29T01:52:07.667Z,99.90
2023-04-29T01:54:38.291Z,99.90
2023-04-29T01:57:05.196Z,99.90
2023-04-29T01:59:31.927Z,99.90
2023-04-29T02:01:58.972Z,99.90
2023-04-29T02:04:26.014Z,99.90
2023-04-29T02:06:52.916Z,99.90
2023-04-29T02:09:19.949Z,99.90
2023-04-29T02:11:46.705Z,99.90
2023-04-29T02:14:14.089Z,99.90
2023-04-29T02:16:40.824Z,99.90
2023-04-29T02:19:07.493Z,99.90
2023-04-29T02:21:35.620Z,99.90
2023-04-29T02:24:02.610Z,99.90
2023-04-29T02:26:29.259Z,99.90
2023-04-29T02:28:57.231Z,99.90
2023-04-29T02:31:23.970Z,99.90
2023-04-29T02:33:50.758Z,99.90
2023-04-29T02:36:18.294Z,99.90
2023-04-29T02:38:44.971Z,99.90
2023-04-29T02:41:19.482Z,99.90
2023-04-29T02:43:46.465Z,99.90
2023-04-29T02:46:13.208Z,99.90
2023-04-29T02:48:39.941Z,99.90
2023-04-29T02:51:06.734Z,99.90
2023-04-29T02:53:34.439Z,99.90
2023-04-29T02:56:01.188Z,99.90
2023-04-29T02:58:28.136Z,99.90
2023-04-29T03:00:54.872Z,99.90
2023-04-29T03:03:23.182Z,99.90
2023-04-29T03:05:50.368Z,99.90
2023-04-29T03:08:17.115Z,99.90
2023-04-29T03:10:43.905Z,99.90
2023-04-29T03:13:10.870Z,99.90
2023-04-29T03:15:39.480Z,99.90
2023-04-29T03:18:06.320Z,99.90
2023-04-29T03:20:33.065Z,99.90
2023-04-29T03:23:00.936Z,99.90
2023-04-29T03:25:29.013Z,99.90
2023-04-29T03:27:55.910Z,99.90
2023-04-29T03:30:22.570Z,99.90
2023-04-29T03:32:49.296Z,99.90
2023-04-29T03:35:16.223Z,99.90
2023-04-29T03:37:44.602Z,99.90
2023-04-29T03:40:12.304Z,99.90
2023-04-29T03:42:39.117Z,99.90
2023-04-29T03:45:06.951Z,99.90
2023-04-29T03:47:33.701Z,99.90
2023-04-29T03:50:00.417Z,99.90
2023-04-29T03:52:28.342Z,99.90
2023-04-29T03:54:55.104Z,99.90
2023-04-29T03:57:21.817Z,99.90
2023-04-29T03:59:50.647Z,99.90
2023-04-29T04:02:17.922Z,99.90
2023-04-29T04:04:44.914Z,99.90
2023-04-29T04:07:11.851Z,99.90
2023-04-29T04:09:38.828Z,99.90
2023-04-29T04:12:06.595Z,99.90
2023-04-29T04:14:33.530Z,99.90
2023-04-29T04:17:01.193Z,99.90
2023-04-29T04:19:29.279Z,99.90
2023-04-29T04:21:56.263Z,99.90
2023-04-29T04:24:23.463Z,99.90
2023-04-29T04:26:50.288Z,99.90
2023-04-29T04:29:17.028Z,99.90
2023-04-29T04:31:46.721Z,99.90
2023-04-29T04:34:13.848Z,99.90
2023-04-29T04:36:42.296Z,99.90
2023-04-29T04:39:09.054Z,99.90
2023-04-29T04:41:35.838Z,99.90
2023-04-29T04:44:03.081Z,99.90
2023-04-29T04:46:29.761Z,99.90
2023-04-29T04:48:58.517Z,99.90
2023-04-29T04:51:25.161Z,99.90
2023-04-29T04:53:51.884Z,99.90
2023-04-29T04:56:18.662Z,99.90
2023-04-29T04:58:45.288Z,99.90
2023-04-29T05:01:11.984Z,99.90
2023-04-29T05:03:38.955Z,99.90
2023-04-29T05:06:05.988Z,99.90
2023-04-29T05:08:32.727Z,99.90
2023-04-29T05:10:59.501Z,99.90
2023-04-29T05:13:26.247Z,99.90
2023-04-29T05:15:53.070Z,99.90
2023-04-29T05:18:19.968Z,99.90
2023-04-29T05:20:46.598Z,99.90
2023-04-29T05:23:13.279Z,99.90
2023-04-29T05:25:40.155Z,99.90
2023-04-29T05:28:07.960Z,99.90
2023-04-29T05:30:35.044Z,99.90
2023-04-29T05:33:02.004Z,99.90
2023-04-29T05:35:31.109Z,99.90
2023-04-29T05:37:57.741Z,99.90
2023-04-29T05:40:24.440Z,99.90
2023-04-29T05:42:51.989Z,99.90
2023-04-29T05:45:18.727Z,99.90
2023-04-29T05:47:45.602Z,99.90
2023-04-29T05:50:12.594Z,99.90
2023-04-29T05:52:39.622Z,99.90
2023-04-29T05:55:06.637Z,99.90
2023-04-29T05:57:33.358Z,99.90
2023-04-29T06:00:00.367Z,99.90
2023-04-29T06:02:28.215Z,99.90
2023-04-29T06:04:55.170Z,99.90
2023-04-29T06:07:24.060Z,99.90
2023-04-29T06:09:51.349Z,99.90
2023-04-29T06:12:18.128Z,99.90
2023-04-29T06:14:44.862Z,99.90
2023-04-29T06:17:12.455Z,99.90
2023-04-29T06:19:39.130Z,99.90
2023-04-29T06:22:05.864Z,99.90
2023-04-29T06:24:32.635Z,99.90
2023-04-29T06:26:59.291Z,99.90
2023-04-29T06:29:26.018Z,99.90
2023-04-29T06:31:54.205Z,99.90
2023-04-29T06:34:20.977Z,99.90
2023-04-29T06:36:53.679Z,99.90
2023-04-29T06:39:20.403Z,99.90
2023-04-29T06:41:47.102Z,99.90
2023-04-29T06:44:13.912Z,99.90
2023-04-29T06:46:40.637Z,99.90
2023-04-29T06:49:07.485Z,99.90
2023-04-29T06:51:35.706Z,99.90
2023-04-29T06:54:02.455Z,99.90
2023-04-29T06:56:29.581Z,99.90
2023-04-29T06:58:56.250Z,99.90
2023-04-29T07:01:23.066Z,99.90
2023-04-29T07:03:50.024Z,99.90
2023-04-29T07:06:16.989Z,99.90
2023-04-29T07:08:43.749Z,99.90
2023-04-29T07:11:10.471Z,99.90
2023-04-29T07:13:37.326Z,99.90
2023-04-29T07:16:04.230Z,99.90
2023-04-29T07:18:31.062Z,99.90
2023-04-29T07:21:01.840Z,99.90
2023-04-29T07:23:28.594Z,99.90
2023-04-29T07:25:55.243Z,99.90
2023-04-29T07:28:21.944Z,99.90
2023-04-29T07:30:49.311Z,99.90
2023-04-29T07:33:17.181Z,99.90
2023-04-29T07:35:45.028Z,99.90
2023-04-29T07:38:13.179Z,99.90
2023-04-29T07:40:39.850Z,99.90
2023-04-29T07:43:07.312Z,99.90
2023-04-29T07:45:35.501Z,99.90
2023-04-29T07:48:02.623Z,99.90
2023-04-29T07:50:29.335Z,99.90
2023-04-29T07:52:57.818Z,99.90
2023-04-29T07:55:24.456Z,99.90
2023-04-29T07:57:52.672Z,99.90
2023-04-29T08:00:23.836Z,99.90
2023-04-29T08:02:57.995Z,99.90
2023-04-29T08:05:25.706Z,99.90
2023-04-29T08:07:52.929Z,99.90
2023-04-29T08:10:20.117Z,99.90
2023-04-29T08:12:47.692Z,99.90
2023-04-29T08:15:14.646Z,99.90
2023-04-29T08:17:41.625Z,99.90
2023-04-29T08:20:09.377Z,99.90
2023-04-29T08:22:36.582Z,99.90
2023-04-29T08:25:06.296Z,99.90
2023-04-29T08:27:33.135Z,99.90
2023-04-29T08:29:59.935Z,99.90
2023-04-29T08:32:26.934Z,99.90
2023-04-29T08:34:53.947Z,99.90
2023-04-29T08:37:22.498Z,99.90
2023-04-29T08:39:49.298Z,99.90
2023-04-29T08:42:19.574Z,99.90
2023-04-29T08:44:46.662Z,99.90
2023-04-29T08:47:14.735Z,99.90
2023-04-29T08:49:41.989Z,99.90
2023-04-29T08:52:09.840Z,99.90
2023-04-29T08:54:36.651Z,99.90
2023-04-29T08:57:05.013Z,99.90
2023-04-29T08:59:32.732Z,99.90
2023-04-29T09:02:00.620Z,99.90
2023-04-29T09:04:48.114Z,99.90
2023-04-29T09:07:16.790Z,99.90
2023-04-29T09:09:44.054Z,99.90
2023-04-29T09:12:10.673Z,99.90
2023-04-29T09:14:37.437Z,99.90
2023-04-29T09:17:04.291Z,99.90
2023-04-29T09:19:38.816Z,99.90
2023-04-29T09:22:07.995Z,99.90
2023-04-29T09:24:36.626Z,99.90
2023-04-29T09:27:04.449Z,99.90
2023-04-29T09:29:32.973Z,99.90
2023-04-29T09:32:00.119Z,99.90
2023-04-29T09:34:36.026Z,99.90
2023-04-29T09:37:02.703Z,99.90
2023-04-29T09:39:39.143Z,99.90
2023-04-29T09:42:09.034Z,99.90
2023-04-29T09:44:36.054Z,99.90
2023-04-29T09:47:10.017Z,99.90
2023-04-29T09:49:41.069Z,99.90
2023-04-29T09:52:10.975Z,99.90
2023-04-29T09:54:40.794Z,99.90
2023-04-29T09:57:10.301Z,99.90
2023-04-29T09:59:41.541Z,99.90
2023-04-29T10:02:15.725Z,99.90
2023-04-29T10:04:44.463Z,99.90
2023-04-29T10:07:16.131Z,99.90
2023-04-29T10:09:46.330Z,99.90
2023-04-29T10:12:16.730Z,99.90
2023-04-29T10:14:58.140Z,99.90
2023-04-29T10:17:47.686Z,99.90
2023-04-29T10:20:18.258Z,99.90
2023-04-29T10:22:51.922Z,99.90
2023-04-29T10:25:21.262Z,99.20
2023-04-29T10:27:49.291Z,99.90
2023-04-29T10:30:19.971Z,99.90
2023-04-29T10:32:51.650Z,99.90
2023-04-29T10:35:22.317Z,98.80
2023-04-29T10:37:49.725Z,98.70
2023-04-29T10:40:29.807Z,99.90
2023-04-29T10:42:57.068Z,99.90
2023-04-29T10:45:31.671Z,99.90
2023-04-29T10:48:10.572Z,99.90
2023-04-29T10:50:46.978Z,98.30
2023-04-29T10:53:15.252Z,97.30
2023-04-29T10:55:43.196Z,97.30
2023-04-29T10:58:39.267Z,98.20
2023-04-29T11:01:07.958Z,99.30
2023-04-29T11:04:00.437Z,99.30
2023-04-29T11:06:36.042Z,99.50
2023-04-29T11:09:07.407Z,97.70
2023-04-29T11:11:54.429Z,99.00
2023-04-29T11:14:36.735Z,97.10
2023-04-29T11:17:12.598Z,98.50
2023-04-29T11:19:50.488Z,99.90
2023-04-29T11:22:24.001Z,99.90
2023-04-29T11:25:05.817Z,99.90
2023-04-29T11:27:40.562Z,99.90
2023-04-29T11:30:08.118Z,98.10
2023-04-29T11:32:45.792Z,95.80
2023-04-29T11:35:18.103Z,97.70
2023-04-29T11:37:46.207Z,98.00
2023-04-29T11:40:14.543Z,97.00
2023-04-29T11:42:43.923Z,92.70
2023-04-29T11:45:11.226Z,93.70
2023-04-29T11:47:42.652Z,96.40
2023-04-29T11:50:10.448Z,94.90
2023-04-29T11:52:39.365Z,93.50
2023-04-29T11:55:08.705Z,92.30
2023-04-29T11:57:36.340Z,92.40
2023-04-29T12:00:05.237Z,97.20
2023-04-29T12:02:34.485Z,92.50
2023-04-29T12:05:07.617Z,91.20
2023-04-29T12:07:36.968Z,90.80
2023-04-29T12:10:03.860Z,93.80
2023-04-29T12:12:34.912Z,96.00
2023-04-29T12:15:03.702Z,99.70
2023-04-29T12:17:30.672Z,91.80
2023-04-29T12:19:57.661Z,91.60
2023-04-29T12:22:32.102Z,89.60
2023-04-29T12:24:58.903Z,93.70
2023-04-29T12:27:26.741Z,91.30
2023-04-29T12:29:53.465Z,90.70
2023-04-29T12:32:24.270Z,88.50
2023-04-29T12:34:55.165Z,86.90
2023-04-29T12:37:26.279Z,96.00
2023-04-29T12:39:55.485Z,84.10
2023-04-29T12:42:22.173Z,85.20
2023-04-29T12:44:50.153Z,98.30
2023-04-29T12:47:17.530Z,86.40
2023-04-29T12:49:50.179Z,83.80
2023-04-29T12:52:16.953Z,79.50
2023-04-29T12:54:50.751Z,81.40
2023-04-29T12:57:18.374Z,81.30
2023-04-29T12:59:45.113Z,99.90
2023-04-29T13:02:12.399Z,83.40
2023-04-29T13:04:40.074Z,82.80
2023-04-29T13:07:07.279Z,77.50
2023-04-29T13:09:34.864Z,80.90
2023-04-29T13:12:02.853Z,91.50
2023-04-29T13:14:29.619Z,87.70
2023-04-29T13:16:56.377Z,91.20
2023-04-29T13:21:53.072Z,87.80
2023-04-29T13:24:20.927Z,88.90
2023-04-29T13:26:49.673Z,86.90
2023-04-29T13:29:17.712Z,84.60
2023-04-29T13:31:44.533Z,85.40
2023-04-29T13:34:11.325Z,82.50
2023-04-29T13:36:38.470Z,80.70
2023-04-29T13:39:06.327Z,82.50
2023-04-29T13:41:35.636Z,83.20
2023-04-29T13:44:03.433Z,90.50
2023-04-29T13:46:32.637Z,82.20
2023-04-29T13:54:48.379Z,82.00
2023-04-29T14:04:19.258Z,86.30
2023-04-29T14:06:46.254Z,84.50
2023-04-29T14:09:13.014Z,84.00
2023-04-29T14:11:39.702Z,82.30
2023-04-29T14:14:06.447Z,83.20
2023-04-29T14:16:33.312Z,82.70
2023-04-29T14:19:02.868Z,82.60
2023-04-29T14:21:33.036Z,82.30
2023-04-29T14:24:02.396Z,82.80
2023-04-29T14:26:30.104Z,83.90
2023-04-29T14:29:00.580Z,78.40
2023-04-29T14:31:31.131Z,78.60
2023-04-29T14:33:59.710Z,78.80
2023-04-29T14:36:26.785Z,77.80
2023-04-29T14:38:54.018Z,77.80
2023-04-29T14:41:23.465Z,81.40
2023-04-29T14:43:50.278Z,77.10
2023-04-29T14:46:17.374Z,77.50
2023-04-29T14:48:44.164Z,74.50
2023-04-29T14:51:11.293Z,75.90
2023-04-29T14:53:39.364Z,77.40
2023-04-29T14:56:07.994Z,78.50
2023-04-29T14:58:35.918Z,81.00
2023-04-29T15:01:04.718Z,83.70
2023-04-29T15:03:31.888Z,74.60
2023-04-29T15:05:58.984Z,79.00
2023-04-29T15:08:25.798Z,86.20
2023-04-29T15:10:53.635Z,89.50
2023-04-29T15:13:20.339Z,80.80
2023-04-29T15:15:47.325Z,80.70
2023-04-29T15:18:14.193Z,80.70
2023-04-29T15:20:41.231Z,80.10
2023-04-29T15:23:08.774Z,79.30
2023-04-29T15:25:36.912Z,83.40
2023-04-29T15:28:04.660Z,80.40
2023-04-29T15:30:31.750Z,79.80
2023-04-29T15:32:58.573Z,80.60
2023-04-29T15:35:25.371Z,81.30
2023-04-29T15:37:52.170Z,81.20
2023-04-29T15:40:20.073Z,83.90
2023-04-29T15:42:46.785Z,81.50
2023-04-29T15:45:13.898Z,82.00
2023-04-29T15:47:40.808Z,84.40
2023-04-29T15:50:09.507Z,80.50
2023-04-29T15:52:37.438Z,82.40
2023-04-29T15:55:05.471Z,82.70
2023-04-29T15:57:32.480Z,84.10
2023-04-29T15:59:59.286Z,82.30
2023-04-29T16:02:26.078Z,81.90
2023-04-29T16:04:53.383Z,82.10
2023-04-29T16:07:20.040Z,80.00
2023-04-29T16:09:47.107Z,82.10
2023-04-29T16:12:13.993Z,80.70
2023-04-29T16:14:41.878Z,81.70
2023-04-29T16:17:08.718Z,81.70
2023-04-29T16:19:37.071Z,81.40
2023-04-29T16:22:04.633Z,82.00
2023-04-29T16:24:31.347Z,81.10
2023-04-29T16:26:58.858Z,80.00
2023-04-29T16:29:25.864Z,80.70
2023-04-29T16:31:52.973Z,80.80
2023-04-29T16:34:20.066Z,78.20
2023-04-29T16:36:46.970Z,79.20
2023-04-29T16:39:13.865Z,75.20
2023-04-29T16:41:40.828Z,74.00
2023-04-29T16:44:09.611Z,72.00
2023-04-29T16:46:36.435Z,72.20
2023-04-29T16:49:03.437Z,71.20
2023-04-29T16:51:30.312Z,70.40
2023-04-29T16:53:57.003Z,70.50
2023-04-29T16:56:23.943Z,74.00
2023-04-29T16:58:51.090Z,71.40
2023-04-29T17:01:19.753Z,69.60
2023-04-29T17:03:47.795Z,71.40
2023-04-29T17:06:15.792Z,70.70
2023-04-29T17:08:43.075Z,74.40
2023-04-29T17:11:10.393Z,72.50
2023-04-29T17:13:39.539Z,70.80
2023-04-29T17:16:07.829Z,71.30
2023-04-29T17:18:34.669Z,70.70
2023-04-29T17:21:02.703Z,70.50
2023-04-29T17:23:30.644Z,71.30
2023-04-29T17:25:58.550Z,71.90
2023-04-29T17:28:25.288Z,71.40
2023-04-29T17:30:55.667Z,72.30
2023-04-29T17:33:22.630Z,71.20
2023-04-29T17:35:49.450Z,72.80
2023-04-29T17:38:16.317Z,74.00
2023-04-29T17:40:43.045Z,75.90
2023-04-29T17:43:09.812Z,75.80
2023-04-29T17:45:40.515Z,77.10
2023-04-29T17:48:07.513Z,79.30
2023-04-29T17:50:34.613Z,78.60
2023-04-29T17:53:01.444Z,80.50
2023-04-29T17:55:28.237Z,74.30
2023-04-29T17:57:58.492Z,74.30
2023-04-29T18:00:25.478Z,76.60
2023-04-29T18:02:52.350Z,75.20
2023-04-29T18:05:20.556Z,77.00
2023-04-29T18:07:47.286Z,77.30
2023-04-29T18:10:14.030Z,73.30
2023-04-29T18:12:40.728Z,74.00
2023-04-29T18:15:09.681Z,75.40
2023-04-29T18:17:37.498Z,77.50
2023-04-29T18:20:05.541Z,77.00
2023-04-29T18:22:33.006Z,73.10
2023-04-29T18:25:00.321Z,74.70
2023-04-29T18:27:27.340Z,76.40
2023-04-29T18:29:54.301Z,76.10
2023-04-29T18:32:21.222Z,77.50
2023-04-29T18:34:47.983Z,78.10
2023-04-29T18:37:14.682Z,78.90
2023-04-29T18:39:41.457Z,80.30
2023-04-29T18:42:09.187Z,81.60
2023-04-29T18:44:36.020Z,81.70
2023-04-29T18:47:02.700Z,82.90
2023-04-29T18:49:30.286Z,91.30
2023-04-29T18:51:57.225Z,93.00
2023-04-29T18:54:25.101Z,93.40
2023-04-29T18:56:52.264Z,93.10
2023-04-29T18:59:19.785Z,92.50
2023-04-29T19:01:48.126Z,95.30
2023-04-29T19:04:15.800Z,93.50
2023-04-29T19:06:42.968Z,93.60
2023-04-29T19:09:11.068Z,94.20
2023-04-29T19:11:37.929Z,95.30
2023-04-29T19:14:04.837Z,97.90
2023-04-29T19:16:31.587Z,99.90
2023-04-29T19:18:58.318Z,96.80
2023-04-29T19:21:25.065Z,99.30
2023-04-29T19:23:52.329Z,95.80
2023-04-29T19:26:19.111Z,99.90
2023-04-29T19:28:45.895Z,95.90
2023-04-29T19:31:13.098Z,99.90
2023-04-29T19:33:39.954Z,98.50
2023-04-29T19:36:07.351Z,95.90
2023-04-29T19:38:34.053Z,95.70
2023-04-29T19:41:00.845Z,95.40
2023-04-29T19:43:27.484Z,95.50
2023-04-29T19:45:54.179Z,96.00
2023-04-29T19:48:21.097Z,99.90
2023-04-29T19:50:47.877Z,98.70
2023-04-29T19:53:14.676Z,95.90
2023-04-29T19:55:41.639Z,99.90
2023-04-29T19:58:08.476Z,99.90
2023-04-29T20:00:36.324Z,99.90
2023-04-29T20:03:03.489Z,99.90
2023-04-29T20:05:30.263Z,99.90
2023-04-29T20:07:57.050Z,99.90
2023-04-29T20:10:23.776Z,99.90
2023-04-29T20:12:50.569Z,99.90
2023-04-29T20:15:17.403Z,99.90
2023-04-29T20:17:44.183Z,99.90
2023-04-29T20:20:11.627Z,99.90
2023-04-29T20:22:38.987Z,99.90
2023-04-29T20:25:06.226Z,99.90
2023-04-29T20:27:33.127Z,99.90
2023-04-29T20:29:59.803Z,99.90
2023-04-29T20:32:26.961Z,99.90
2023-04-29T20:34:54.651Z,99.90
2023-04-29T20:37:21.495Z,99.90
2023-04-29T20:39:48.685Z,99.90
2023-04-29T20:42:15.422Z,99.90
2023-04-29T20:44:42.320Z,99.90
2023-04-29T20:47:09.032Z,99.90
2023-04-29T20:49:35.968Z,99.90
2023-04-29T20:52:02.678Z,99.90
2023-04-29T20:54:29.396Z,99.90
2023-04-29T20:56:56.160Z,99.90
2023-04-29T20:59:23.070Z,99.90
2023-04-29T21:01:49.880Z,99.90
2023-04-29T21:04:17.012Z,99.90
2023-04-29T21:06:43.854Z,99.90
2023-04-29T21:09:11.071Z,99.90
2023-04-29T21:11:37.866Z,99.90
2023-04-29T21:14:04.554Z,99.90
2023-04-29T21:16:31.288Z,99.90
2023-04-29T21:18:58.028Z,99.90
2023-04-29T21:21:24.853Z,99.90
2023-04-29T21:23:51.487Z,99.90
2023-04-29T21:26:18.373Z,99.90
2023-04-29T21:28:45.069Z,99.90
2023-04-29T21:31:16.129Z,99.90
2023-04-29T21:33:43.836Z,99.90
2023-04-29T21:36:10.737Z,99.90
2023-04-29T21:38:37.589Z,99.90
2023-04-29T21:41:16.889Z,99.90
2023-04-29T21:43:43.698Z,99.90
2023-04-29T21:46:10.382Z,99.90
2023-04-29T21:48:37.120Z,99.90
2023-04-29T21:51:05.279Z,99.90
2023-04-29T21:53:31.972Z,99.90
2023-04-29T21:55:58.729Z,99.90
2023-04-29T21:58:25.479Z,99.90
2023-04-29T22:01:01.135Z,99.90
2023-04-29T22:03:28.077Z,99.90
2023-04-29T22:05:55.005Z,99.90
2023-04-29T22:08:22.143Z,99.90
2023-04-29T22:10:48.954Z,99.90
2023-04-29T22:13:16.689Z,99.90
2023-04-29T22:15:43.428Z,99.90
2023-04-29T22:18:11.182Z,99.90
2023-04-29T22:20:38.190Z,99.90
2023-04-29T22:23:04.880Z,99.90
2023-04-29T22:25:31.984Z,99.90
2023-04-29T22:27:58.782Z,99.90
2023-04-29T22:30:25.504Z,99.90
2023-04-29T22:32:52.279Z,99.90
2023-04-29T22:35:19.379Z,99.90
2023-04-29T22:37:46.058Z,99.90
2023-04-29T22:40:13.586Z,99.90
2023-04-29T22:42:41.942Z,99.90
2023-04-29T22:45:10.167Z,99.90
2023-04-29T22:47:36.965Z,99.90
2023-04-29T22:50:04.059Z,99.90
2023-04-29T22:52:32.736Z,99.90
2023-04-29T22:54:59.897Z,99.90
2023-04-29T22:57:26.624Z,99.90
2023-04-29T22:59:55.287Z,99.90
2023-04-29T23:02:27.529Z,99.90
2023-04-29T23:04:56.110Z,99.90
2023-04-29T23:07:23.397Z,99.90
2023-04-29T23:09:51.055Z,99.90
2023-04-29T23:12:19.069Z,99.90
2023-04-29T23:14:46.228Z,99.90
2023-04-29T23:17:12.897Z,99.90
2023-04-29T23:19:40.050Z,99.90
2023-04-29T23:22:07.357Z,99.90
2023-04-29T23:24:35.417Z,99.90
2023-04-29T23:27:03.431Z,99.90
2023-04-29T23:29:34.166Z,99.90
2023-04-29T23:32:01.221Z,99.90
2023-04-29T23:34:27.961Z,99.90
2023-04-29T23:36:54.679Z,99.90
2023-04-29T23:39:21.468Z,99.90
2023-04-29T23:41:48.265Z,99.90
2023-04-29T23:44:15.418Z,99.90
2023-04-29T23:46:42.135Z,99.90
2023-04-29T23:49:10.392Z,99.90
2023-04-29T23:51:37.286Z,99.90
2023-04-29T23:54:04.164Z,99.90
2023-04-29T23:56:32.857Z,99.90
2023-04-29T23:58:59.797Z,99.90
